Time;durP1;ratioP1;P1;durP2;ratioP2;P2;SDS_P1;SDS_P2;PMS_P1;PMS_P2;Temp;Humidity;BMP_temperature;BMP_pressure;BME280_temperature;BME280_humidity;BME280_pressure;Samples;Min_cycle;Max_cycle;Signal;HPM_P1;HPM_P2
2023/12/21 00:00:33;;;;;;;160.77;105.80;;;;;;;9.97;nan;99174.84;5033302;28;20048;-66
2023/12/21 00:03:03;;;;;;;155.20;104.65;;;;;;;10.19;nan;99181.97;5053737;28;20045;-66
2023/12/21 00:05:33;;;;;;;161.63;102.30;;;;;;;9.90;nan;99170.25;5044211;28;20484;-66
2023/12/21 00:08:02;;;;;;;151.25;102.50;;;;;;;9.78;nan;99163.72;5036378;28;20132;-66
2023/12/21 00:10:32;;;;;;;161.63;103.20;;;;;;;9.61;nan;99174.56;5048647;28;20691;-66
2023/12/21 00:13:01;;;;;;;154.48;101.82;;;;;;;9.68;nan;99170.25;5053065;28;20055;-68
2023/12/21 00:15:31;;;;;;;162.13;103.18;;;;;;;9.59;nan;99177.41;5023521;28;20826;-65
2023/12/21 00:18:01;;;;;;;151.95;103.72;;;;;;;9.61;nan;99166.63;5026395;28;20644;-65
2023/12/21 00:20:30;;;;;;;161.57;102.60;;;;;;;10.05;nan;99180.06;5047044;28;20661;-65
2023/12/21 00:22:59;;;;;;;160.75;105.13;;;;;;;10.51;nan;99178.22;5043761;28;20527;-65
2023/12/21 00:25:29;;;;;;;154.18;103.07;;;;;;;10.49;nan;99183.69;5043269;28;20063;-65
2023/12/21 00:27:58;;;;;;;160.77;104.05;;;;;;;10.50;nan;99177.38;5043843;28;20073;-65
2023/12/21 00:30:28;;;;;;;154.27;102.10;;;;;;;10.25;nan;99183.91;5023123;28;20049;-65
2023/12/21 00:32:57;;;;;;;163.70;103.28;;;;;;;10.42;nan;99185.41;5049123;28;20045;-65
2023/12/21 00:35:27;;;;;;;153.95;100.38;;;;;;;10.40;nan;99181.31;5009164;28;20392;-65
2023/12/21 00:37:56;;;;;;;161.20;101.07;;;;;;;10.07;nan;99178.06;5022841;28;20044;-65
2023/12/21 00:40:26;;;;;;;152.82;101.00;;;;;;;9.91;nan;99174.53;5039576;28;20112;-64
2023/12/21 00:42:57;;;;;;;153.02;101.15;;;;;;;10.10;nan;99181.19;5062329;28;20776;-65
2023/12/21 00:45:27;;;;;;;153.50;101.45;;;;;;;10.02;nan;99177.78;5063671;28;20052;-66
2023/12/21 00:47:57;;;;;;;152.85;99.93;;;;;;;9.93;nan;99187.59;5064534;28;20499;-65
2023/12/21 00:50:26;;;;;;;167.05;101.72;;;;;;;10.06;nan;99187.00;5065538;28;20111;-65
2023/12/21 00:52:56;;;;;;;147.38;98.18;;;;;;;10.20;nan;99186.25;5066104;28;20045;-65
2023/12/21 00:55:25;;;;;;;149.85;100.70;;;;;;;10.26;nan;99186.38;5066375;28;20126;-63
2023/12/21 00:57:55;;;;;;;156.65;101.45;;;;;;;10.11;nan;99189.94;5066914;28;20103;-65
2023/12/21 01:00:24;;;;;;;152.68;102.00;;;;;;;10.11;nan;99195.22;5047119;28;20074;-64
2023/12/21 01:02:54;;;;;;;147.15;100.63;;;;;;;9.97;nan;99193.34;5061806;28;20075;-65
2023/12/21 01:05:24;;;;;;;147.40;100.63;;;;;;;9.84;nan;99196.59;5046902;28;20056;-65
2023/12/21 01:07:53;;;;;;;154.70;99.50;;;;;;;9.70;nan;99192.88;5047369;28;20051;-65
2023/12/21 01:10:23;;;;;;;155.98;101.63;;;;;;;9.66;nan;99202.16;5066488;28;20045;-65
2023/12/21 01:12:52;;;;;;;150.05;99.78;;;;;;;9.84;nan;99210.63;5065797;28;20058;-65
2023/12/21 01:15:22;;;;;;;152.30;101.80;;;;;;;9.98;nan;99209.06;5066150;28;20056;-65
2023/12/21 01:17:51;;;;;;;157.38;101.93;;;;;;;9.96;nan;99211.03;5067069;28;20053;-65
2023/12/21 01:20:21;;;;;;;145.35;100.35;;;;;;;9.81;nan;99216.28;5053341;28;20064;-65
2023/12/21 01:22:51;;;;;;;146.25;96.53;;;;;;;9.82;nan;99225.06;5041597;28;20537;-65
2023/12/21 01:25:20;;;;;;;145.65;99.22;;;;;;;9.73;nan;99218.16;5063105;28;20044;-65
2023/12/21 01:27:49;;;;;;;148.63;97.78;;;;;;;9.76;nan;99231.84;5059202;28;20051;-65
2023/12/21 01:30:21;;;;;;;149.65;98.70;;;;;;;9.65;nan;99218.19;5031035;28;20515;-65
2023/12/21 01:32:50;;;;;;;145.38;100.97;;;;;;;9.62;nan;99216.72;5063358;28;20049;-65
2023/12/21 01:35:20;;;;;;;142.30;101.18;;;;;;;9.47;nan;99221.91;5081062;28;20131;-65
2023/12/21 01:37:50;;;;;;;146.57;100.32;;;;;;;9.56;nan;99222.69;5065525;28;20052;-66
2023/12/21 01:40:19;;;;;;;143.00;100.50;;;;;;;9.55;nan;99228.16;5062806;28;20057;-65
2023/12/21 01:42:49;;;;;;;147.43;101.15;;;;;;;9.53;nan;99224.88;5045319;28;20107;-67
2023/12/21 01:45:18;;;;;;;145.35;98.20;;;;;;;9.62;nan;99229.94;5029181;28;20064;-67
2023/12/21 01:47:49;;;;;;;149.35;100.68;;;;;;;9.67;nan;99227.59;5046629;28;20052;-67
2023/12/21 01:50:19;;;;;;;155.50;99.40;;;;;;;9.66;nan;99228.59;5026006;28;20049;-66
2023/12/21 01:52:49;;;;;;;157.38;103.95;;;;;;;9.63;nan;99236.06;5037257;28;20134;-67
2023/12/21 01:55:19;;;;;;;163.50;105.97;;;;;;;9.65;nan;99234.88;5045939;28;20128;-67
2023/12/21 01:57:49;;;;;;;155.60;102.88;;;;;;;9.73;nan;99236.69;5046594;28;20045;-67
2023/12/21 02:00:19;;;;;;;152.15;102.10;;;;;;;9.78;nan;99231.69;5045348;28;20045;-67
2023/12/21 02:02:50;;;;;;;165.57;106.05;;;;;;;9.56;nan;99230.63;5044099;28;20048;-67
2023/12/21 02:05:20;;;;;;;149.38;102.57;;;;;;;9.61;nan;99232.75;5045748;28;20045;-66
2023/12/21 02:07:50;;;;;;;154.85;103.03;;;;;;;9.61;nan;99230.94;5028300;28;20061;-67
2023/12/21 02:10:19;;;;;;;161.82;105.78;;;;;;;9.66;nan;99231.25;5045518;28;20791;-66
2023/12/21 02:12:49;;;;;;;162.13;104.25;;;;;;;9.66;nan;99239.19;5044712;28;20607;-67
2023/12/21 02:15:19;;;;;;;160.80;105.32;;;;;;;9.66;nan;99241.81;5043819;28;20110;-65
2023/12/21 02:17:51;;;;;;;164.00;103.85;;;;;;;9.62;nan;99247.63;5045074;28;20063;-67
2023/12/21 02:20:22;;;;;;;153.57;102.53;;;;;;;9.63;nan;99246.63;5043922;28;20543;-65
2023/12/21 02:22:53;;;;;;;154.13;102.97;;;;;;;9.78;nan;99256.28;5027623;28;20067;-65
2023/12/21 02:25:23;;;;;;;156.93;104.90;;;;;;;9.71;nan;99259.81;5045318;28;20056;-65
2023/12/21 02:27:52;;;;;;;167.30;108.13;;;;;;;9.67;nan;99247.94;5044374;28;20056;-65
2023/12/21 02:30:22;;;;;;;163.13;105.07;;;;;;;9.59;nan;99258.56;5044405;28;20049;-65
2023/12/21 02:32:51;;;;;;;153.05;102.20;;;;;;;9.39;nan;99261.59;5043304;28;20057;-65
2023/12/21 02:35:21;;;;;;;160.10;106.75;;;;;;;9.38;nan;99265.22;5045143;28;20217;-65
2023/12/21 02:37:50;;;;;;;155.30;101.97;;;;;;;9.61;nan;99262.66;5046082;28;20111;-65
2023/12/21 02:40:20;;;;;;;158.77;104.40;;;;;;;9.69;nan;99265.25;5048090;28;20124;-65
2023/12/21 02:42:49;;;;;;;175.15;112.53;;;;;;;9.98;nan;99255.84;5064758;28;20110;-65
2023/12/21 02:45:18;;;;;;;165.95;109.18;;;;;;;10.25;nan;99263.31;5064395;28;20414;-65
2023/12/21 02:47:48;;;;;;;165.43;106.35;;;;;;;9.96;nan;99261.31;5047402;28;20063;-67
2023/12/21 02:50:18;;;;;;;161.75;108.63;;;;;;;9.81;nan;99269.19;5048725;28;20048;-67
2023/12/21 02:52:47;;;;;;;157.80;103.93;;;;;;;9.77;nan;99275.00;5027564;28;20056;-67
2023/12/21 02:55:17;;;;;;;172.07;110.25;;;;;;;9.83;nan;99284.88;5053393;28;20662;-66
2023/12/21 02:57:47;;;;;;;160.38;106.13;;;;;;;9.90;nan;99284.03;5065375;28;20753;-67
2023/12/21 03:00:16;;;;;;;162.07;107.40;;;;;;;9.90;nan;99288.50;5047493;28;20068;-66
2023/12/21 03:02:46;;;;;;;165.40;109.32;;;;;;;9.98;nan;99293.72;5072788;28;20087;-67
2023/12/21 03:05:16;;;;;;;163.43;107.82;;;;;;;10.03;nan;99291.38;5069430;28;20047;-67
2023/12/21 03:07:45;;;;;;;161.05;111.32;;;;;;;10.23;nan;99297.06;5060901;28;20064;-66
2023/12/21 03:10:15;;;;;;;157.65;110.93;;;;;;;10.45;nan;99300.72;5064352;28;20495;-66
2023/12/21 03:12:45;;;;;;;172.85;117.00;;;;;;;10.51;nan;99295.56;5063766;28;20052;-67
2023/12/21 03:15:15;;;;;;;180.98;116.30;;;;;;;10.48;nan;99295.09;5076407;28;20060;-67
2023/12/21 03:17:45;;;;;;;186.38;116.45;;;;;;;10.55;nan;99318.03;5043279;28;20133;-67
2023/12/21 03:20:14;;;;;;;168.13;116.18;;;;;;;10.67;nan;99310.47;5064323;28;20493;-67
2023/12/21 03:22:44;;;;;;;175.82;116.03;;;;;;;10.96;nan;99315.06;5046434;28;20084;-67
2023/12/21 03:25:14;;;;;;;188.38;117.15;;;;;;;11.51;nan;99311.97;5047416;28;20048;-66
2023/12/21 03:27:43;;;;;;;178.55;118.72;;;;;;;12.05;nan;99318.63;5059666;28;20484;-67
2023/12/21 03:30:13;;;;;;;194.30;119.78;;;;;;;12.19;nan;99316.13;5045188;28;20049;-66
2023/12/21 03:32:42;;;;;;;186.50;117.22;;;;;;;12.31;nan;99326.06;5025496;28;20041;-66
2023/12/21 03:35:12;;;;;;;185.20;121.28;;;;;;;12.69;nan;99325.84;5058977;28;20048;-67
2023/12/21 03:37:41;;;;;;;198.55;124.30;;;;;;;13.24;nan;99323.22;5008808;28;20700;-66
2023/12/21 03:40:11;;;;;;;193.25;117.05;;;;;;;13.77;nan;99323.53;5025290;28;20053;-66
2023/12/21 03:42:41;;;;;;;176.98;113.40;;;;;;;13.98;nan;99341.28;5044900;28;20495;-67
2023/12/21 03:45:11;;;;;;;174.05;113.45;;;;;;;14.25;nan;99346.47;5063450;28;20134;-67
2023/12/21 03:47:40;;;;;;;170.13;115.15;;;;;;;14.39;nan;99347.38;5061122;28;20053;-67
2023/12/21 03:50:10;;;;;;;183.98;116.97;;;;;;;14.38;nan;99351.06;5043931;28;20363;-67
2023/12/21 03:52:39;;;;;;;167.70;117.22;;;;;;;14.95;nan;99347.88;5026860;28;20087;-67
2023/12/21 03:55:09;;;;;;;191.80;126.25;;;;;;;15.18;nan;99344.78;5058279;28;20045;-67
2023/12/21 03:57:39;;;;;;;204.57;129.00;;;;;;;15.07;nan;99345.41;5061524;28;20053;-65
2023/12/21 04:00:10;;;;;;;202.13;127.18;;;;;;;15.21;nan;99355.88;5043918;28;20493;-65
2023/12/21 04:02:40;;;;;;;197.00;128.20;;;;;;;15.68;nan;99351.31;5025590;28;20045;-65
2023/12/21 04:05:09;;;;;;;234.20;134.95;;;;;;;16.21;nan;99346.59;5049848;28;20057;-65
2023/12/21 04:07:39;;;;;;;199.68;127.22;;;;;;;16.60;nan;99356.28;5044013;28;20106;-65
2023/12/21 04:10:08;;;;;;;204.75;131.90;;;;;;;16.82;nan;99357.59;5061760;28;20049;-66
2023/12/21 04:12:38;;;;;;;198.02;131.70;;;;;;;16.81;nan;99358.66;5035554;28;20091;-66
2023/12/21 04:15:08;;;;;;;207.00;133.35;;;;;;;16.85;nan;99359.84;5046310;28;20144;-66
2023/12/21 04:17:38;;;;;;;203.55;131.98;;;;;;;17.19;nan;99365.75;5064483;28;20048;-65
2023/12/21 04:20:09;;;;;;;188.98;129.57;;;;;;;17.33;nan;99370.78;5064024;28;20056;-66
2023/12/21 04:22:39;;;;;;;207.23;139.10;;;;;;;17.27;nan;99371.66;5028826;28;20060;-66
2023/12/21 04:25:09;;;;;;;202.60;140.40;;;;;;;17.56;nan;99377.38;5078450;28;20056;-66
2023/12/21 04:27:39;;;;;;;222.45;146.65;;;;;;;17.45;nan;99384.28;5066590;28;20044;-67
2023/12/21 04:30:09;;;;;;;219.50;148.55;;;;;;;17.49;nan;99377.44;5058542;28;20040;-65
2023/12/21 04:32:38;;;;;;;229.38;150.68;;;;;;;17.95;nan;99385.88;5066092;28;20048;-67
2023/12/21 04:35:10;;;;;;;222.27;149.43;;;;;;;17.86;nan;99387.19;5064842;28;20040;-67
2023/12/21 04:37:39;;;;;;;238.80;152.85;;;;;;;17.71;nan;99384.03;5064988;28;20058;-67
2023/12/21 04:40:10;;;;;;;231.57;154.15;;;;;;;17.91;nan;99387.34;5064844;28;20479;-67
2023/12/21 04:42:41;;;;;;;234.32;158.15;;;;;;;18.08;nan;99390.25;5063938;28;20495;-67
2023/12/21 04:45:10;;;;;;;236.10;158.63;;;;;;;17.58;nan;99386.84;5065891;28;20472;-67
2023/12/21 04:47:40;;;;;;;244.63;159.73;;;;;;;17.30;nan;99387.31;5064344;28;20114;-67
2023/12/21 04:50:09;;;;;;;233.18;158.88;;;;;;;17.77;nan;99374.31;5045934;28;20040;-68
2023/12/21 04:52:39;;;;;;;235.32;162.63;;;;;;;17.63;nan;99380.84;5063119;28;20052;-67
2023/12/21 04:55:09;;;;;;;234.35;159.73;;;;;;;17.60;nan;99382.09;5060714;28;20068;-68
2023/12/21 04:57:38;;;;;;;245.45;162.27;;;;;;;17.38;nan;99378.16;5064905;28;20051;-66
2023/12/21 05:00:08;;;;;;;239.50;157.20;;;;;;;17.33;nan;99389.53;5070382;28;20056;-68
2023/12/21 05:02:39;;;;;;;233.02;159.65;;;;;;;17.67;nan;99392.75;5063596;28;20476;-67
2023/12/21 05:05:09;;;;;;;219.38;154.07;;;;;;;17.68;nan;99391.72;5064284;28;20055;-66
2023/12/21 05:07:39;;;;;;;213.93;148.77;;;;;;;17.77;nan;99391.22;5060791;28;20067;-67
2023/12/21 05:10:08;;;;;;;207.68;146.20;;;;;;;17.73;nan;99398.06;5042793;28;20049;-66
2023/12/21 05:12:38;;;;;;;224.05;151.00;;;;;;;17.42;nan;99390.06;5059163;28;20044;-66
2023/12/21 05:15:08;;;;;;;218.00;149.15;;;;;;;17.49;nan;99386.28;5041371;28;20048;-66
2023/12/21 05:17:39;;;;;;;227.13;153.85;;;;;;;17.12;nan;99384.56;5063878;28;20499;-66
2023/12/21 05:20:09;;;;;;;225.15;157.70;;;;;;;17.63;nan;99383.50;5059260;28;20379;-66
2023/12/21 05:22:41;;;;;;;220.63;146.57;;;;;;;17.34;nan;99372.44;5055580;28;20071;-66
2023/12/21 05:25:10;;;;;;;221.52;149.23;;;;;;;17.54;nan;99377.59;5058126;28;20051;-66
2023/12/21 05:27:40;;;;;;;221.93;152.38;;;;;;;17.52;nan;99379.69;5062705;28;20048;-66
2023/12/21 05:30:11;;;;;;;239.57;152.75;;;;;;;17.65;nan;99370.72;5064088;28;20493;-66
2023/12/21 05:32:40;;;;;;;237.45;158.52;;;;;;;17.84;nan;99362.47;5060644;28;20063;-66
2023/12/21 05:35:10;;;;;;;224.55;156.68;;;;;;;18.01;nan;99364.56;5058743;28;20693;-66
2023/12/21 05:37:40;;;;;;;220.77;153.38;;;;;;;18.11;nan;99376.38;5058450;28;20531;-66
2023/12/21 05:40:12;;;;;;;228.23;153.13;;;;;;;18.14;nan;99367.09;5042666;28;20052;-66
2023/12/21 05:42:41;;;;;;;228.02;156.23;;;;;;;18.35;nan;99367.44;5059344;28;20048;-66
2023/12/21 05:45:11;;;;;;;233.77;156.50;;;;;;;18.44;nan;99356.38;5071406;28;20434;-66
2023/12/21 05:47:41;;;;;;;237.48;158.10;;;;;;;18.14;nan;99351.00;5064425;28;20065;-65
2023/12/21 05:50:10;;;;;;;234.90;159.25;;;;;;;18.10;nan;99353.28;5061654;28;20056;-66
2023/12/21 05:52:40;;;;;;;247.15;165.02;;;;;;;18.26;nan;99351.88;5059366;28;20048;-66
2023/12/21 05:55:15;;;;;;;257.60;166.00;;;;;;;18.44;nan;99349.16;5058067;28;20052;-65
2023/12/21 05:57:44;;;;;;;250.07;160.93;;;;;;;18.63;nan;99347.28;5057635;28;20067;-66
2023/12/21 06:00:14;;;;;;;231.50;158.93;;;;;;;18.76;nan;99347.09;5058267;28;20040;-66
2023/12/21 06:02:43;;;;;;;245.90;162.27;;;;;;;18.99;nan;99346.28;5045147;28;20457;-67
2023/12/21 06:05:14;;;;;;;237.70;160.90;;;;;;;19.14;nan;99338.63;5056003;28;20044;-66
2023/12/21 06:07:46;;;;;;;241.45;162.35;;;;;;;19.21;nan;99339.31;5062549;28;20754;-66
2023/12/21 06:10:15;;;;;;;234.85;148.48;;;;;;;18.98;nan;99340.13;5062001;28;20044;-66
2023/12/21 06:12:46;;;;;;;221.10;151.02;;;;;;;19.18;nan;99331.75;5055861;28;20052;-66
2023/12/21 06:15:17;;;;;;;226.05;152.00;;;;;;;19.46;nan;99326.53;5041976;28;20588;-66
2023/12/21 06:17:46;;;;;;;237.27;158.85;;;;;;;19.47;nan;99327.34;5057390;28;20052;-66
2023/12/21 06:20:16;;;;;;;222.75;152.20;;;;;;;19.57;nan;99320.31;5040774;28;20056;-66
2023/12/21 06:22:46;;;;;;;215.20;150.98;;;;;;;19.57;nan;99309.56;5058869;28;20058;-66
2023/12/21 06:25:16;;;;;;;154.82;111.00;;;;;;;19.65;nan;99311.88;5060311;28;20151;-66
2023/12/21 06:27:46;;;;;;;154.40;104.53;;;;;;;19.88;nan;99315.59;5063798;28;20141;-65
2023/12/21 06:30:16;;;;;;;150.73;100.70;;;;;;;20.12;nan;99314.47;5045223;28;20079;-66
2023/12/21 06:32:46;;;;;;;132.00;89.05;;;;;;;20.18;nan;99308.13;5058635;28;20052;-65
2023/12/21 06:35:17;;;;;;;130.10;90.38;;;;;;;20.33;nan;99302.25;5042393;28;20551;-67
2023/12/21 06:37:46;;;;;;;132.73;91.15;;;;;;;20.32;nan;99301.44;5044239;28;20048;-66
2023/12/21 06:40:19;;;;;;;122.40;87.20;;;;;;;20.36;nan;99299.91;5029283;28;20046;-65
2023/12/21 06:42:49;;;;;;;129.68;91.97;;;;;;;20.45;nan;99290.38;5037061;28;20048;-65
2023/12/21 06:45:18;;;;;;;131.35;88.55;;;;;;;20.27;nan;99277.09;5042169;28;20067;-65
2023/12/21 06:47:48;;;;;;;113.10;77.25;;;;;;;20.39;nan;99277.91;5059838;28;20048;-64
2023/12/21 06:50:19;;;;;;;96.78;71.55;;;;;;;20.06;nan;99273.22;5063110;28;20040;-64
2023/12/21 06:52:48;;;;;;;108.50;72.50;;;;;;;20.19;nan;99272.94;5064281;28;20044;-64
2023/12/21 06:55:18;;;;;;;101.30;70.03;;;;;;;20.59;nan;99262.09;5061842;28;20041;-64
2023/12/21 06:57:48;;;;;;;99.15;66.85;;;;;;;20.57;nan;99264.25;5044571;28;20130;-65
2023/12/21 07:00:18;;;;;;;102.45;65.15;;;;;;;20.60;nan;99260.22;5059025;28;20048;-66
2023/12/21 07:02:48;;;;;;;76.95;53.67;;;;;;;20.34;nan;99253.59;5061815;28;20044;-66
2023/12/21 07:05:18;;;;;;;76.60;54.30;;;;;;;20.63;nan;99248.97;5073372;28;20040;-66
2023/12/21 07:07:47;;;;;;;85.45;55.30;;;;;;;20.66;nan;99255.75;5060099;28;20059;-65
2023/12/21 07:10:17;;;;;;;78.15;55.50;;;;;;;20.52;nan;99247.19;5062427;28;20131;-64
2023/12/21 07:12:48;;;;;;;83.22;58.40;;;;;;;20.36;nan;99237.19;5063415;28;20448;-64
2023/12/21 07:15:18;;;;;;;91.32;63.03;;;;;;;20.46;nan;99218.53;5062145;28;20658;-64
2023/12/21 07:17:48;;;;;;;91.40;62.65;;;;;;;20.53;nan;99220.00;5062077;28;20041;-64
2023/12/21 07:20:21;;;;;;;100.90;64.38;;;;;;;20.35;nan;99220.25;5061456;28;20171;-64
2023/12/21 07:22:50;;;;;;;96.72;63.00;;;;;;;20.54;nan;99218.97;5045804;28;20122;-64
2023/12/21 07:25:20;;;;;;;89.68;60.25;;;;;;;20.58;nan;99225.47;5061903;28;20052;-65
2023/12/21 07:27:50;;;;;;;94.97;63.80;;;;;;;20.59;nan;99224.44;5060695;28;20756;-65
2023/12/21 07:30:19;;;;;;;103.25;70.40;;;;;;;20.68;nan;99213.25;5057870;28;20194;-65
2023/12/21 07:32:49;;;;;;;101.80;72.50;;;;;;;20.75;nan;99209.34;5055742;28;20143;-64
2023/12/21 07:35:18;;;;;;;99.18;63.70;;;;;;;20.95;nan;99198.06;5058707;28;20130;-65
2023/12/21 07:37:48;;;;;;;97.70;59.92;;;;;;;20.95;nan;99203.44;5062346;28;20444;-65
2023/12/21 07:40:17;;;;;;;94.55;61.78;;;;;;;20.84;nan;99207.06;5035361;28;20131;-64
2023/12/21 07:42:47;;;;;;;93.50;64.22;;;;;;;20.79;nan;99196.22;5062938;28;20467;-65
2023/12/21 07:45:16;;;;;;;95.55;67.85;;;;;;;20.61;nan;99189.19;5058724;28;20051;-65
2023/12/21 07:47:46;;;;;;;113.47;71.25;;;;;;;20.51;nan;99180.97;5062965;28;20050;-65
2023/12/21 07:50:15;;;;;;;105.32;73.55;;;;;;;20.52;nan;99178.03;5056044;28;20048;-65
2023/12/21 07:52:45;;;;;;;104.45;74.32;;;;;;;20.57;nan;99178.13;5044581;28;20057;-65
2023/12/21 07:55:14;;;;;;;113.45;76.90;;;;;;;20.67;nan;99173.97;5058287;28;20148;-65
2023/12/21 07:57:44;;;;;;;104.00;72.40;;;;;;;20.58;nan;99178.91;5066059;28;20057;-65
2023/12/21 08:00:14;;;;;;;112.05;77.30;;;;;;;20.51;nan;99168.31;5068209;28;20131;-65
2023/12/21 08:02:44;;;;;;;102.95;77.85;;;;;;;20.72;nan;99172.13;5067647;28;20059;-65
2023/12/21 08:05:14;;;;;;;101.97;76.05;;;;;;;20.51;nan;99162.13;5066174;28;20555;-65
2023/12/21 08:07:44;;;;;;;107.05;76.60;;;;;;;20.73;nan;99156.78;5073728;28;20053;-65
2023/12/21 08:10:14;;;;;;;111.50;77.75;;;;;;;20.67;nan;99147.03;5044125;28;20495;-65
2023/12/21 08:12:44;;;;;;;104.95;78.13;;;;;;;20.84;nan;99151.34;5063373;28;20063;-65
2023/12/21 08:15:14;;;;;;;103.30;76.80;;;;;;;20.88;nan;99143.56;5061001;28;20076;-65
2023/12/21 08:17:44;;;;;;;97.88;72.80;;;;;;;20.75;nan;99144.75;5061371;28;20044;-65
2023/12/21 08:20:15;;;;;;;92.95;68.07;;;;;;;20.67;nan;99145.13;5062645;28;20040;-65
2023/12/21 08:22:44;;;;;;;94.20;67.32;;;;;;;20.85;nan;99136.78;5065589;28;20075;-65
2023/12/21 08:25:14;;;;;;;93.70;69.38;;;;;;;20.80;nan;99130.53;5056064;28;20053;-65
2023/12/21 08:27:44;;;;;;;89.85;66.43;;;;;;;20.71;nan;99132.03;5065204;28;20059;-65
2023/12/21 08:30:14;;;;;;;100.68;70.50;;;;;;;20.57;nan;99128.84;5085111;28;20070;-64
2023/12/21 08:32:45;;;;;;;102.07;69.32;;;;;;;20.70;nan;99125.00;5079340;28;20052;-65
2023/12/21 08:35:15;;;;;;;97.07;69.95;;;;;;;20.81;nan;99119.50;5088665;28;20131;-65
2023/12/21 08:37:44;;;;;;;93.78;68.97;;;;;;;20.79;nan;99105.50;5088059;28;20056;-65
2023/12/21 08:40:15;;;;;;;93.40;68.90;;;;;;;20.58;nan;99107.06;5083183;28;20044;-65
2023/12/21 08:42:45;;;;;;;98.90;71.88;;;;;;;20.51;nan;99097.53;5065407;28;20045;-65
2023/12/21 08:45:15;;;;;;;94.00;66.72;;;;;;;20.45;nan;99101.19;5065663;28;20052;-65
2023/12/21 08:47:45;;;;;;;102.80;66.63;;;;;;;20.41;nan;99089.31;5060366;28;20127;-64
2023/12/21 08:50:15;;;;;;;104.07;67.68;;;;;;;20.45;nan;99090.44;5058731;28;20048;-65
2023/12/21 08:52:44;;;;;;;101.45;67.20;;;;;;;20.52;nan;99091.91;5062417;28;20048;-64
2023/12/21 08:55:14;;;;;;;96.75;64.85;;;;;;;20.51;nan;99086.78;5063096;28;20060;-65
2023/12/21 08:57:44;;;;;;;97.80;66.93;;;;;;;20.43;nan;99071.88;5064254;28;20044;-67
2023/12/21 09:00:13;;;;;;;100.35;66.50;;;;;;;20.55;nan;99082.53;5063744;28;20048;-65
2023/12/21 09:02:43;;;;;;;97.35;67.47;;;;;;;20.50;nan;99077.06;5064470;28;20055;-65
2023/12/21 09:05:13;;;;;;;98.65;67.50;;;;;;;20.52;nan;99075.78;5065011;28;20041;-65
2023/12/21 09:07:44;;;;;;;97.90;67.65;;;;;;;20.47;nan;99082.94;5048607;28;20098;-66
2023/12/21 09:10:14;;;;;;;96.97;66.07;;;;;;;20.47;nan;99081.06;5062945;28;20044;-65
2023/12/21 09:12:43;;;;;;;95.40;65.68;;;;;;;20.50;nan;99077.88;5061622;28;20352;-66
2023/12/21 09:15:13;;;;;;;105.65;66.90;;;;;;;20.47;nan;99075.69;5068539;28;20049;-66
2023/12/21 09:17:43;;;;;;;100.55;67.07;;;;;;;20.48;nan;99080.03;5063494;28;20099;-66
2023/12/21 09:20:13;;;;;;;88.50;59.92;;;;;;;20.38;nan;99063.72;5061996;28;20056;-66
2023/12/21 09:22:42;;;;;;;83.35;59.50;;;;;;;20.37;nan;99067.47;5063178;28;20048;-65
2023/12/21 09:25:14;;;;;;;78.50;52.92;;;;;;;20.32;nan;99056.63;5064317;28;20055;-66
2023/12/21 09:27:44;;;;;;;73.05;51.33;;;;;;;20.36;nan;99057.75;5064455;28;20076;-66
2023/12/21 09:30:16;;;;;;;80.22;51.97;;;;;;;20.39;nan;99051.91;5067517;28;20142;-66
2023/12/21 09:32:46;;;;;;;79.22;54.50;;;;;;;20.33;nan;99054.75;5056236;28;20634;-64
2023/12/21 09:35:20;;;;;;;78.85;52.63;;;;;;;20.33;nan;99046.69;5064914;28;20485;-66
2023/12/21 09:37:50;;;;;;;77.25;51.95;;;;;;;20.34;nan;99061.78;5063976;28;20198;-66
2023/12/21 09:40:20;;;;;;;68.60;51.15;;;;;;;20.33;nan;99055.56;5050342;28;20664;-66
2023/12/21 09:42:53;;;;;;;82.90;52.78;;;;;;;20.32;nan;99050.44;5067902;28;20048;-66
2023/12/21 09:45:32;;;;;;;89.13;57.60;;;;;;;20.30;nan;99060.63;5058659;28;20492;-66
2023/12/21 09:48:02;;;;;;;80.20;56.47;;;;;;;20.23;nan;99050.00;5066424;28;20055;-66
2023/12/21 09:50:32;;;;;;;80.40;56.00;;;;;;;20.23;nan;99054.56;5071211;28;20064;-65
2023/12/21 09:53:02;;;;;;;86.00;56.13;;;;;;;20.22;nan;99056.47;5074750;28;20052;-66
2023/12/21 09:55:32;;;;;;;89.47;58.80;;;;;;;20.20;nan;99050.50;5047124;28;20041;-65
2023/12/21 09:58:04;;;;;;;91.47;59.63;;;;;;;20.19;nan;99052.38;5065608;28;20056;-67
2023/12/21 10:00:34;;;;;;;88.72;62.47;;;;;;;20.07;nan;99046.28;5065753;28;20052;-66
2023/12/21 10:03:05;;;;;;;92.07;61.58;;;;;;;20.11;nan;99046.59;5050700;28;20488;-66
2023/12/21 10:05:35;;;;;;;94.70;60.75;;;;;;;20.04;nan;99044.09;5038435;28;20128;-66
2023/12/21 10:08:06;;;;;;;80.05;54.85;;;;;;;20.00;nan;99045.59;5027788;28;20137;-65
2023/12/21 10:10:39;;;;;;;80.50;55.40;;;;;;;19.95;nan;99047.44;5026868;28;20060;-66
2023/12/21 10:13:09;;;;;;;92.68;55.58;;;;;;;19.93;nan;99044.16;5067349;28;20071;-66
2023/12/21 10:15:40;;;;;;;89.00;57.47;;;;;;;19.97;nan;99039.91;5088379;28;20121;-66
2023/12/21 10:18:09;;;;;;;74.28;51.08;;;;;;;19.93;nan;99044.97;5087220;28;20044;-66
2023/12/21 10:20:39;;;;;;;74.07;51.72;;;;;;;19.85;nan;99045.38;5075567;28;20471;-66
2023/12/21 10:23:09;;;;;;;69.18;46.22;;;;;;;19.80;nan;99045.28;5071398;28;20104;-65
2023/12/21 10:25:39;;;;;;;68.22;47.42;;;;;;;19.81;nan;99043.44;5067714;28;20120;-66
2023/12/21 10:28:10;;;;;;;68.65;45.92;;;;;;;19.79;nan;99034.78;5076572;28;20162;-65
2023/12/21 10:30:41;;;;;;;65.82;43.78;;;;;;;19.69;nan;99030.06;5085247;28;20487;-65
2023/12/21 10:33:12;;;;;;;69.13;44.55;;;;;;;19.67;nan;99034.84;5084983;28;20054;-65
2023/12/21 10:35:42;;;;;;;69.38;43.58;;;;;;;19.71;nan;99030.63;5084335;28;20063;-66
2023/12/21 10:38:13;;;;;;;65.93;44.97;;;;;;;19.65;nan;99036.97;5086567;28;20139;-65
2023/12/21 10:40:45;;;;;;;77.55;44.72;;;;;;;19.67;nan;99032.16;5079638;28;20128;-66
2023/12/21 10:43:16;;;;;;;70.30;45.50;;;;;;;19.59;nan;99027.19;5085759;28;20044;-66
2023/12/21 10:45:48;;;;;;;67.20;44.42;;;;;;;19.58;nan;99025.56;5033999;28;20048;-66
2023/12/21 10:48:19;;;;;;;72.10;44.35;;;;;;;19.53;nan;99020.91;5061863;28;20067;-66
2023/12/21 10:50:52;;;;;;;73.55;46.25;;;;;;;19.48;nan;99020.00;5065714;28;20052;-66
2023/12/21 10:53:25;;;;;;;71.18;45.97;;;;;;;19.42;nan;99018.28;5079984;28;20131;-66
2023/12/21 10:55:57;;;;;;;84.78;48.40;;;;;;;19.29;nan;99020.19;5084237;28;20534;-65
2023/12/21 10:58:28;;;;;;;80.53;47.78;;;;;;;19.09;nan;99008.25;5082058;28;20040;-66
2023/12/21 11:00:58;;;;;;;85.25;48.90;;;;;;;19.14;nan;99014.53;5084811;28;20039;-65
2023/12/21 11:03:29;;;;;;;83.82;48.30;;;;;;;18.94;nan;99010.66;5045139;28;20044;-66
2023/12/21 11:06:03;;;;;;;76.00;49.53;;;;;;;19.18;nan;99012.19;5079413;28;20082;-66
2023/12/21 11:08:36;;;;;;;72.60;48.45;;;;;;;19.12;nan;99013.13;5065456;28;20101;-66
2023/12/21 11:11:07;;;;;;;80.77;49.83;;;;;;;19.17;nan;99005.19;5096235;28;20040;-66
2023/12/21 11:13:40;;;;;;;74.85;48.05;;;;;;;19.13;nan;99012.09;5074220;28;20043;-66
2023/12/21 11:16:14;;;;;;;76.88;49.33;;;;;;;18.99;nan;99005.38;5081998;28;20407;-66
2023/12/21 11:18:44;;;;;;;;;;;;;;;18.97;nan;99002.94;5088670;28;20056;-67
2023/12/21 11:21:15;;;;;;;69.53;48.05;;;;;;;18.76;nan;98998.22;5084097;28;20584;-67
2023/12/21 11:23:45;;;;;;;76.07;49.22;;;;;;;18.68;nan;98994.03;5084166;28;20056;-66
2023/12/21 11:26:27;;;;;;;70.20;48.08;;;;;;;18.62;nan;98999.56;5068997;28;20047;-67
2023/12/21 11:29:07;;;;;;;71.70;49.80;;;;;;;18.48;nan;98998.13;5067238;28;20779;-66
2023/12/21 11:31:40;;;;;;;86.28;51.85;;;;;;;18.34;nan;99002.94;5082398;28;20043;-66
2023/12/21 11:34:21;;;;;;;74.82;50.42;;;;;;;18.19;nan;99005.28;5083095;28;20055;-66
2023/12/21 11:36:58;;;;;;;80.50;52.38;;;;;;;18.04;nan;99007.63;5074862;28;20048;-66
2023/12/21 11:39:29;;;;;;;74.85;53.00;;;;;;;17.80;nan;99004.09;5072835;28;20085;-66